sensor_id;sensor_type;location;lat;lon;timestamp;temperature;humidity
78647;DHT22;67961;43.460;3.762;2023-03-14T00:01:57;11.40;80.20
78647;DHT22;67961;43.460;3.762;2023-03-14T00:04:23;11.40;80.40
78647;DHT22;67961;43.460;3.762;2023-03-14T00:06:48;11.40;80.10
78647;DHT22;67961;43.460;3.762;2023-03-14T00:09:15;11.40;80.00
78647;DHT22;67961;43.460;3.762;2023-03-14T00:11:41;11.40;80.20
78647;DHT22;67961;43.460;3.762;2023-03-14T00:14:07;11.40;80.30
78647;DHT22;67961;43.460;3.762;2023-03-14T00:16:33;11.40;80.30
78647;DHT22;67961;43.460;3.762;2023-03-14T00:18:59;11.40;80.30
78647;DHT22;67961;43.460;3.762;2023-03-14T00:21:25;11.40;80.40
78647;DHT22;67961;43.460;3.762;2023-03-14T00:23:51;11.30;79.80
78647;DHT22;67961;43.460;3.762;2023-03-14T00:26:19;11.30;79.70
78647;DHT22;67961;43.460;3.762;2023-03-14T00:28:45;11.20;79.60
78647;DHT22;67961;43.460;3.762;2023-03-14T00:31:14;11.10;79.70
78647;DHT22;67961;43.460;3.762;2023-03-14T00:33:40;11.10;79.90
78647;DHT22;67961;43.460;3.762;2023-03-14T00:36:08;11.00;80.10
78647;DHT22;67961;43.460;3.762;2023-03-14T00:38:35;10.90;80.40
78647;DHT22;67961;43.460;3.762;2023-03-14T00:41:05;10.90;80.30
78647;DHT22;67961;43.460;3.762;2023-03-14T00:43:31;10.80;80.50
78647;DHT22;67961;43.460;3.762;2023-03-14T00:45:57;10.80;80.40
78647;DHT22;67961;43.460;3.762;2023-03-14T00:48:23;10.80;80.60
78647;DHT22;67961;43.460;3.762;2023-03-14T00:50:49;10.80;80.50
78647;DHT22;67961;43.460;3.762;2023-03-14T00:53:15;10.70;79.80
78647;DHT22;67961;43.460;3.762;2023-03-14T00:55:42;10.70;80.20
78647;DHT22;67961;43.460;3.762;2023-03-14T00:58:12;10.60;80.40
78647;DHT22;67961;43.460;3.762;2023-03-14T01:00:39;10.60;80.20
78647;DHT22;67961;43.460;3.762;2023-03-14T01:03:06;10.50;80.00
78647;DHT22;67961;43.460;3.762;2023-03-14T01:05:33;10.50;79.80
78647;DHT22;67961;43.460;3.762;2023-03-14T01:07:59;10.50;79.10
78647;DHT22;67961;43.460;3.762;2023-03-14T01:10:25;10.50;79.10
78647;DHT22;67961;43.460;3.762;2023-03-14T01:12:50;10.50;79.40
78647;DHT22;67961;43.460;3.762;2023-03-14T01:15:16;10.50;79.50
78647;DHT22;67961;43.460;3.762;2023-03-14T01:17:42;10.50;79.60
78647;DHT22;67961;43.460;3.762;2023-03-14T01:20:11;10.40;79.70
78647;DHT22;67961;43.460;3.762;2023-03-14T01:22:37;10.40;79.90
78647;DHT22;67961;43.460;3.762;2023-03-14T01:25:06;10.40;80.00
78647;DHT22;67961;43.460;3.762;2023-03-14T01:27:33;10.40;79.80
78647;DHT22;67961;43.460;3.762;2023-03-14T01:29:58;10.40;79.90
78647;DHT22;67961;43.460;3.762;2023-03-14T01:32:24;10.40;79.30
78647;DHT22;67961;43.460;3.762;2023-03-14T01:34:51;10.40;78.60
78647;DHT22;67961;43.460;3.762;2023-03-14T01:37:17;10.50;78.60
78647;DHT22;67961;43.460;3.762;2023-03-14T01:39:42;10.40;78.90
78647;DHT22;67961;43.460;3.762;2023-03-14T01:42:08;10.40;78.00
78647;DHT22;67961;43.460;3.762;2023-03-14T01:44:58;10.50;78.10
78647;DHT22;67961;43.460;3.762;2023-03-14T01:47:24;10.50;78.10
78647;DHT22;67961;43.460;3.762;2023-03-14T01:50:10;10.50;78.10
78647;DHT22;67961;43.460;3.762;2023-03-14T01:52:41;10.60;77.40
78647;DHT22;67961;43.460;3.762;2023-03-14T01:55:19;10.50;77.40
78647;DHT22;67961;43.460;3.762;2023-03-14T01:57:53;10.50;77.90
78647;DHT22;67961;43.460;3.762;2023-03-14T02:00:21;10.70;75.70
78647;DHT22;67961;43.460;3.762;2023-03-14T02:02:56;10.70;75.80
78647;DHT22;67961;43.460;3.762;2023-03-14T02:05:26;10.70;75.00
78647;DHT22;67961;43.460;3.762;2023-03-14T02:07:54;10.90;74.30
78647;DHT22;67961;43.460;3.762;2023-03-14T02:10:23;10.80;76.00
78647;DHT22;67961;43.460;3.762;2023-03-14T02:12:50;10.80;76.20
78647;DHT22;67961;43.460;3.762;2023-03-14T02:15:18;10.80;76.00
78647;DHT22;67961;43.460;3.762;2023-03-14T02:17:44;10.80;75.80
78647;DHT22;67961;43.460;3.762;2023-03-14T02:20:42;10.80;76.10
78647;DHT22;67961;43.460;3.762;2023-03-14T02:23:11;10.80;75.10
78647;DHT22;67961;43.460;3.762;2023-03-14T02:25:55;10.80;76.30
78647;DHT22;67961;43.460;3.762;2023-03-14T02:28:22;10.70;77.00
78647;DHT22;67961;43.460;3.762;2023-03-14T02:30:48;10.60;77.20
78647;DHT22;67961;43.460;3.762;2023-03-14T02:33:16;10.50;77.30
78647;DHT22;67961;43.460;3.762;2023-03-14T02:38:18;10.40;77.20
78647;DHT22;67961;43.460;3.762;2023-03-14T02:40:45;10.40;77.80
78647;DHT22;67961;43.460;3.762;2023-03-14T02:43:10;10.40;77.30
78647;DHT22;67961;43.460;3.762;2023-03-14T02:45:47;10.30;77.30
78647;DHT22;67961;43.460;3.762;2023-03-14T02:48:24;10.30;78.10
78647;DHT22;67961;43.460;3.762;2023-03-14T02:50:54;10.20;78.30
78647;DHT22;67961;43.460;3.762;2023-03-14T02:53:39;10.10;78.10
78647;DHT22;67961;43.460;3.762;2023-03-14T02:56:07;10.00;78.50
78647;DHT22;67961;43.460;3.762;2023-03-14T02:58:33;10.00;78.70
78647;DHT22;67961;43.460;3.762;2023-03-14T03:00:59;10.00;78.70
78647;DHT22;67961;43.460;3.762;2023-03-14T03:03:24;10.00;78.70
78647;DHT22;67961;43.460;3.762;2023-03-14T03:05:51;10.00;78.90
78647;DHT22;67961;43.460;3.762;2023-03-14T03:08:19;10.00;79.20
78647;DHT22;67961;43.460;3.762;2023-03-14T03:10:45;10.00;79.10
78647;DHT22;67961;43.460;3.762;2023-03-14T03:13:11;10.00;78.90
78647;DHT22;67961;43.460;3.762;2023-03-14T03:15:37;10.10;78.90
78647;DHT22;67961;43.460;3.762;2023-03-14T03:18:02;10.10;79.00
78647;DHT22;67961;43.460;3.762;2023-03-14T03:20:28;10.10;78.60
78647;DHT22;67961;43.460;3.762;2023-03-14T03:22:54;10.20;78.50
78647;DHT22;67961;43.460;3.762;2023-03-14T03:25:19;10.20;78.70
78647;DHT22;67961;43.460;3.762;2023-03-14T03:27:45;10.20;78.60
78647;DHT22;67961;43.460;3.762;2023-03-14T03:30:11;10.20;78.60
78647;DHT22;67961;43.460;3.762;2023-03-14T03:32:37;10.20;78.70
78647;DHT22;67961;43.460;3.762;2023-03-14T03:35:04;10.20;78.50
78647;DHT22;67961;43.460;3.762;2023-03-14T03:37:31;10.20;78.50
78647;DHT22;67961;43.460;3.762;2023-03-14T03:39:57;10.20;78.90
78647;DHT22;67961;43.460;3.762;2023-03-14T03:42:22;10.30;78.50
78647;DHT22;67961;43.460;3.762;2023-03-14T03:44:48;10.30;78.60
78647;DHT22;67961;43.460;3.762;2023-03-14T03:47:15;10.30;78.90
78647;DHT22;67961;43.460;3.762;2023-03-14T03:49:41;10.30;78.50
78647;DHT22;67961;43.460;3.762;2023-03-14T03:52:06;10.30;79.30
78647;DHT22;67961;43.460;3.762;2023-03-14T03:54:32;10.40;79.30
78647;DHT22;67961;43.460;3.762;2023-03-14T03:56:58;10.40;79.30
78647;DHT22;67961;43.460;3.762;2023-03-14T03:59:23;10.40;79.20
78647;DHT22;67961;43.460;3.762;2023-03-14T04:01:49;10.40;79.20
78647;DHT22;67961;43.460;3.762;2023-03-14T04:04:15;10.40;79.50
78647;DHT22;67961;43.460;3.762;2023-03-14T04:06:40;10.40;79.20
78647;DHT22;67961;43.460;3.762;2023-03-14T04:09:08;10.40;79.40
78647;DHT22;67961;43.460;3.762;2023-03-14T04:11:34;10.40;79.20
78647;DHT22;67961;43.460;3.762;2023-03-14T04:14:00;10.40;79.00
78647;DHT22;67961;43.460;3.762;2023-03-14T04:16:26;10.40;79.00
78647;DHT22;67961;43.460;3.762;2023-03-14T04:18:51;10.40;78.80
78647;DHT22;67961;43.460;3.762;2023-03-14T04:21:18;10.40;78.90
78647;DHT22;67961;43.460;3.762;2023-03-14T04:23:44;10.30;78.60
78647;DHT22;67961;43.460;3.762;2023-03-14T04:26:10;10.30;79.10
78647;DHT22;67961;43.460;3.762;2023-03-14T04:28:36;10.30;78.90
78647;DHT22;67961;43.460;3.762;2023-03-14T04:31:16;10.30;78.70
78647;DHT22;67961;43.460;3.762;2023-03-14T04:33:42;10.30;78.60
78647;DHT22;67961;43.460;3.762;2023-03-14T04:36:08;10.30;78.70
78647;DHT22;67961;43.460;3.762;2023-03-14T04:38:34;10.40;78.40
78647;DHT22;67961;43.460;3.762;2023-03-14T04:41:00;10.40;78.30
78647;DHT22;67961;43.460;3.762;2023-03-14T04:43:26;10.40;78.50
78647;DHT22;67961;43.460;3.762;2023-03-14T04:45:56;10.40;78.70
78647;DHT22;67961;43.460;3.762;2023-03-14T04:48:22;10.40;78.20
78647;DHT22;67961;43.460;3.762;2023-03-14T04:50:48;10.40;78.20
78647;DHT22;67961;43.460;3.762;2023-03-14T04:53:15;10.30;78.70
78647;DHT22;67961;43.460;3.762;2023-03-14T04:55:41;10.30;78.90
78647;DHT22;67961;43.460;3.762;2023-03-14T04:58:06;10.20;79.00
78647;DHT22;67961;43.460;3.762;2023-03-14T05:00:32;10.20;79.00
78647;DHT22;67961;43.460;3.762;2023-03-14T05:02:58;10.30;79.00
78647;DHT22;67961;43.460;3.762;2023-03-14T05:05:24;10.30;78.90
78647;DHT22;67961;43.460;3.762;2023-03-14T05:07:50;10.30;78.80
78647;DHT22;67961;43.460;3.762;2023-03-14T05:10:16;10.30;78.70
78647;DHT22;67961;43.460;3.762;2023-03-14T05:12:42;10.30;79.20
78647;DHT22;67961;43.460;3.762;2023-03-14T05:15:08;10.40;79.00
78647;DHT22;67961;43.460;3.762;2023-03-14T05:17:34;10.40;78.90
78647;DHT22;67961;43.460;3.762;2023-03-14T05:20:00;10.30;78.80
78647;DHT22;67961;43.460;3.762;2023-03-14T05:22:26;10.30;78.80
78647;DHT22;67961;43.460;3.762;2023-03-14T05:24:51;10.20;78.50
78647;DHT22;67961;43.460;3.762;2023-03-14T05:27:22;10.20;78.70
78647;DHT22;67961;43.460;3.762;2023-03-14T05:29:48;10.20;79.10
78647;DHT22;67961;43.460;3.762;2023-03-14T05:32:13;10.20;79.10
78647;DHT22;67961;43.460;3.762;2023-03-14T05:34:39;10.20;79.00
78647;DHT22;67961;43.460;3.762;2023-03-14T05:37:05;10.20;79.30
78647;DHT22;67961;43.460;3.762;2023-03-14T05:39:30;10.20;78.90
78647;DHT22;67961;43.460;3.762;2023-03-14T05:41:56;10.30;78.00
78647;DHT22;67961;43.460;3.762;2023-03-14T05:44:22;10.30;78.40
78647;DHT22;67961;43.460;3.762;2023-03-14T05:46:47;10.30;78.90
78647;DHT22;67961;43.460;3.762;2023-03-14T05:49:13;10.40;78.90
78647;DHT22;67961;43.460;3.762;2023-03-14T05:51:39;10.40;78.60
78647;DHT22;67961;43.460;3.762;2023-03-14T05:54:04;10.50;78.10
78647;DHT22;67961;43.460;3.762;2023-03-14T05:56:30;10.50;77.50
78647;DHT22;67961;43.460;3.762;2023-03-14T05:58:56;10.60;77.20
78647;DHT22;67961;43.460;3.762;2023-03-14T06:01:21;10.70;76.50
78647;DHT22;67961;43.460;3.762;2023-03-14T06:03:47;10.70;76.40
78647;DHT22;67961;43.460;3.762;2023-03-14T06:06:13;10.80;76.20
78647;DHT22;67961;43.460;3.762;2023-03-14T06:08:38;10.80;75.70
78647;DHT22;67961;43.460;3.762;2023-03-14T06:11:04;10.90;75.80
78647;DHT22;67961;43.460;3.762;2023-03-14T06:13:30;10.90;75.90
78647;DHT22;67961;43.460;3.762;2023-03-14T06:15:56;10.90;75.30
78647;DHT22;67961;43.460;3.762;2023-03-14T06:18:21;11.00;74.70
78647;DHT22;67961;43.460;3.762;2023-03-14T06:20:47;11.00;75.10
78647;DHT22;67961;43.460;3.762;2023-03-14T06:23:13;11.00;74.40
78647;DHT22;67961;43.460;3.762;2023-03-14T06:25:39;11.10;74.70
78647;DHT22;67961;43.460;3.762;2023-03-14T06:28:04;11.10;74.70
78647;DHT22;67961;43.460;3.762;2023-03-14T06:30:30;11.10;74.70
78647;DHT22;67961;43.460;3.762;2023-03-14T06:32:55;11.00;75.10
78647;DHT22;67961;43.460;3.762;2023-03-14T06:35:22;11.10;75.10
78647;DHT22;67961;43.460;3.762;2023-03-14T06:37:48;11.10;74.70
78647;DHT22;67961;43.460;3.762;2023-03-14T06:40:14;11.10;74.50
78647;DHT22;67961;43.460;3.762;2023-03-14T06:42:43;11.10;75.00
78647;DHT22;67961;43.460;3.762;2023-03-14T06:45:10;11.10;74.40
78647;DHT22;67961;43.460;3.762;2023-03-14T06:47:36;11.10;74.20
78647;DHT22;67961;43.460;3.762;2023-03-14T06:50:04;11.10;74.30
78647;DHT22;67961;43.460;3.762;2023-03-14T06:52:30;11.10;74.40
78647;DHT22;67961;43.460;3.762;2023-03-14T06:54:55;11.10;74.70
78647;DHT22;67961;43.460;3.762;2023-03-14T06:57:21;11.10;74.40
78647;DHT22;67961;43.460;3.762;2023-03-14T06:59:47;11.20;74.40
78647;DHT22;67961;43.460;3.762;2023-03-14T07:02:13;11.10;74.70
78647;DHT22;67961;43.460;3.762;2023-03-14T07:04:39;11.10;74.60
78647;DHT22;67961;43.460;3.762;2023-03-14T07:07:05;11.20;75.00
78647;DHT22;67961;43.460;3.762;2023-03-14T07:09:32;11.20;74.60
78647;DHT22;67961;43.460;3.762;2023-03-14T07:11:58;11.20;74.30
78647;DHT22;67961;43.460;3.762;2023-03-14T07:14:24;11.30;73.90
78647;DHT22;67961;43.460;3.762;2023-03-14T07:16:50;11.40;73.30
78647;DHT22;67961;43.460;3.762;2023-03-14T07:19:15;11.40;72.90
78647;DHT22;67961;43.460;3.762;2023-03-14T07:21:41;11.50;73.10
78647;DHT22;67961;43.460;3.762;2023-03-14T07:24:06;11.50;72.80
78647;DHT22;67961;43.460;3.762;2023-03-14T07:26:32;11.50;72.40
78647;DHT22;67961;43.460;3.762;2023-03-14T07:28:59;11.50;71.70
78647;DHT22;67961;43.460;3.762;2023-03-14T07:31:25;11.60;71.70
78647;DHT22;67961;43.460;3.762;2023-03-14T07:33:50;11.60;72.70
78647;DHT22;67961;43.460;3.762;2023-03-14T07:36:16;11.60;73.20
78647;DHT22;67961;43.460;3.762;2023-03-14T07:38:42;11.50;73.40
78647;DHT22;67961;43.460;3.762;2023-03-14T07:41:08;11.50;72.60
78647;DHT22;67961;43.460;3.762;2023-03-14T07:43:34;11.50;72.20
78647;DHT22;67961;43.460;3.762;2023-03-14T07:46:00;11.50;72.80
78647;DHT22;67961;43.460;3.762;2023-03-14T07:48:26;11.60;72.90
78647;DHT22;67961;43.460;3.762;2023-03-14T07:50:54;11.50;72.80
78647;DHT22;67961;43.460;3.762;2023-03-14T07:53:20;11.60;72.00
78647;DHT22;67961;43.460;3.762;2023-03-14T07:55:47;11.70;69.70
78647;DHT22;67961;43.460;3.762;2023-03-14T07:58:13;11.70;68.00
78647;DHT22;67961;43.460;3.762;2023-03-14T08:00:39;11.90;68.40
78647;DHT22;67961;43.460;3.762;2023-03-14T08:03:05;11.90;66.60
78647;DHT22;67961;43.460;3.762;2023-03-14T08:05:31;11.90;66.30
78647;DHT22;67961;43.460;3.762;2023-03-14T08:07:59;11.90;66.70
78647;DHT22;67961;43.460;3.762;2023-03-14T08:10:24;11.90;66.10
78647;DHT22;67961;43.460;3.762;2023-03-14T08:12:54;12.00;66.30
78647;DHT22;67961;43.460;3.762;2023-03-14T08:15:20;12.00;66.70
78647;DHT22;67961;43.460;3.762;2023-03-14T09:45:04;13.60;61.40
78647;DHT22;67961;43.460;3.762;2023-03-14T09:47:33;13.90;61.60
78647;DHT22;67961;43.460;3.762;2023-03-14T09:50:00;14.00;62.00
78647;DHT22;67961;43.460;3.762;2023-03-14T09:52:36;14.30;61.00
78647;DHT22;67961;43.460;3.762;2023-03-14T09:55:03;14.40;61.20
78647;DHT22;67961;43.460;3.762;2023-03-14T09:57:32;14.30;60.50
78647;DHT22;67961;43.460;3.762;2023-03-14T10:00:05;14.30;60.70
78647;DHT22;67961;43.460;3.762;2023-03-14T10:02:40;14.60;60.80
78647;DHT22;67961;43.460;3.762;2023-03-14T10:05:21;14.70;59.90
78647;DHT22;67961;43.460;3.762;2023-03-14T10:07:47;14.80;61.20
78647;DHT22;67961;43.460;3.762;2023-03-14T10:10:22;14.80;60.00
78647;DHT22;67961;43.460;3.762;2023-03-14T10:13:10;14.90;59.60
78647;DHT22;67961;43.460;3.762;2023-03-14T10:15:38;14.70;59.30
78647;DHT22;67961;43.460;3.762;2023-03-14T10:18:12;14.70;59.70
78647;DHT22;67961;43.460;3.762;2023-03-14T10:20:39;15.00;58.90
78647;DHT22;67961;43.460;3.762;2023-03-14T10:25:43;16.10;56.30
78647;DHT22;67961;43.460;3.762;2023-03-14T10:28:30;16.40;55.70
78647;DHT22;67961;43.460;3.762;2023-03-14T10:30:57;16.60;54.80
78647;DHT22;67961;43.460;3.762;2023-03-14T10:33:31;17.00;55.50
78647;DHT22;67961;43.460;3.762;2023-03-14T10:36:00;17.00;53.60
78647;DHT22;67961;43.460;3.762;2023-03-14T10:38:36;17.20;53.70
78647;DHT22;67961;43.460;3.762;2023-03-14T10:41:32;17.10;55.60
78647;DHT22;67961;43.460;3.762;2023-03-14T10:44:00;17.00;55.10
78647;DHT22;67961;43.460;3.762;2023-03-14T10:46:29;17.20;55.10
78647;DHT22;67961;43.460;3.762;2023-03-14T10:48:56;17.00;52.60
78647;DHT22;67961;43.460;3.762;2023-03-14T10:51:27;16.90;53.00
78647;DHT22;67961;43.460;3.762;2023-03-14T10:54:13;16.80;53.50
78647;DHT22;67961;43.460;3.762;2023-03-14T10:56:40;16.40;53.30
78647;DHT22;67961;43.460;3.762;2023-03-14T10:59:13;15.90;52.20
78647;DHT22;67961;43.460;3.762;2023-03-14T11:02:21;15.70;54.90
78647;DHT22;67961;43.460;3.762;2023-03-14T11:05:15;15.70;55.90
78647;DHT22;67961;43.460;3.762;2023-03-14T11:07:44;15.60;55.70
78647;DHT22;67961;43.460;3.762;2023-03-14T11:10:33;15.60;56.70
78647;DHT22;67961;43.460;3.762;2023-03-14T11:13:22;15.90;56.10
78647;DHT22;67961;43.460;3.762;2023-03-14T11:21:41;16.50;54.90
78647;DHT22;67961;43.460;3.762;2023-03-14T11:24:25;16.60;56.10
78647;DHT22;67961;43.460;3.762;2023-03-14T11:27:18;16.80;56.40
78647;DHT22;67961;43.460;3.762;2023-03-14T11:30:05;17.00;54.40
78647;DHT22;67961;43.460;3.762;2023-03-14T11:32:42;16.90;54.00
78647;DHT22;67961;43.460;3.762;2023-03-14T11:35:27;17.00;53.40
78647;DHT22;67961;43.460;3.762;2023-03-14T11:38:30;17.00;52.20
78647;DHT22;67961;43.460;3.762;2023-03-14T11:40:49;17.00;52.50
78647;DHT22;67961;43.460;3.762;2023-03-14T11:43:26;17.10;52.20
78647;DHT22;67961;43.460;3.762;2023-03-14T11:45:56;17.40;53.50
78647;DHT22;67961;43.460;3.762;2023-03-14T11:48:36;17.50;53.70
78647;DHT22;67961;43.460;3.762;2023-03-14T11:51:10;17.50;53.50
78647;DHT22;67961;43.460;3.762;2023-03-14T11:59:18;17.20;52.50
78647;DHT22;67961;43.460;3.762;2023-03-14T12:01:55;17.20;52.70
78647;DHT22;67961;43.460;3.762;2023-03-14T12:07:04;17.40;50.50
78647;DHT22;67961;43.460;3.762;2023-03-14T12:09:35;17.40;49.70
78647;DHT22;67961;43.460;3.762;2023-03-14T12:12:02;17.20;50.00
78647;DHT22;67961;43.460;3.762;2023-03-14T12:14:36;17.20;50.20
78647;DHT22;67961;43.460;3.762;2023-03-14T12:17:22;17.20;50.40
78647;DHT22;67961;43.460;3.762;2023-03-14T12:20:01;17.20;50.50
78647;DHT22;67961;43.460;3.762;2023-03-14T12:22:32;17.30;50.30
78647;DHT22;67961;43.460;3.762;2023-03-14T12:25:22;17.40;50.10
78647;DHT22;67961;43.460;3.762;2023-03-14T12:28:04;17.40;48.90
78647;DHT22;67961;43.460;3.762;2023-03-14T12:35:46;17.50;50.30
78647;DHT22;67961;43.460;3.762;2023-03-14T12:41:08;17.50;49.70
78647;DHT22;67961;43.460;3.762;2023-03-14T12:43:37;17.50;48.40
78647;DHT22;67961;43.460;3.762;2023-03-14T12:46:23;17.20;48.70
78647;DHT22;67961;43.460;3.762;2023-03-14T12:51:40;17.20;48.70
78647;DHT22;67961;43.460;3.762;2023-03-14T12:59:38;17.40;49.30
78647;DHT22;67961;43.460;3.762;2023-03-14T13:02:21;17.20;48.60
78647;DHT22;67961;43.460;3.762;2023-03-14T13:04:48;17.00;49.40
78647;DHT22;67961;43.460;3.762;2023-03-14T13:15:39;16.80;50.20
78647;DHT22;67961;43.460;3.762;2023-03-14T13:23:34;17.00;50.50
78647;DHT22;67961;43.460;3.762;2023-03-14T13:26:01;17.00;50.70
78647;DHT22;67961;43.460;3.762;2023-03-14T13:28:29;17.00;51.60
78647;DHT22;67961;43.460;3.762;2023-03-14T13:30:58;17.00;52.90
78647;DHT22;67961;43.460;3.762;2023-03-14T13:33:24;16.80;51.00
78647;DHT22;67961;43.460;3.762;2023-03-14T13:36:01;16.60;50.70
78647;DHT22;67961;43.460;3.762;2023-03-14T13:38:33;16.30;50.70
78647;DHT22;67961;43.460;3.762;2023-03-14T13:41:04;16.30;51.60
78647;DHT22;67961;43.460;3.762;2023-03-14T13:43:32;16.50;51.80
78647;DHT22;67961;43.460;3.762;2023-03-14T13:46:14;16.70;52.10
78647;DHT22;67961;43.460;3.762;2023-03-14T13:48:55;16.70;51.20
78647;DHT22;67961;43.460;3.762;2023-03-14T13:51:22;16.50;51.80
78647;DHT22;67961;43.460;3.762;2023-03-14T13:53:50;16.30;51.50
78647;DHT22;67961;43.460;3.762;2023-03-14T13:56:25;16.20;52.50
78647;DHT22;67961;43.460;3.762;2023-03-14T13:58:51;16.30;52.20
78647;DHT22;67961;43.460;3.762;2023-03-14T14:01:35;16.40;50.80
78647;DHT22;67961;43.460;3.762;2023-03-14T14:04:07;16.40;51.70
78647;DHT22;67961;43.460;3.762;2023-03-14T14:07:27;16.60;50.50
78647;DHT22;67961;43.460;3.762;2023-03-14T14:09:39;16.50;51.10
78647;DHT22;67961;43.460;3.762;2023-03-14T14:12:17;16.40;51.30
78647;DHT22;67961;43.460;3.762;2023-03-14T14:14:52;16.20;51.90
78647;DHT22;67961;43.460;3.762;2023-03-14T14:17:23;16.00;52.10
78647;DHT22;67961;43.460;3.762;2023-03-14T14:19:50;15.80;52.40
78647;DHT22;67961;43.460;3.762;2023-03-14T14:22:18;15.60;52.20
78647;DHT22;67961;43.460;3.762;2023-03-14T14:24:44;15.50;51.70
78647;DHT22;67961;43.460;3.762;2023-03-14T14:27:17;15.40;51.80
78647;DHT22;67961;43.460;3.762;2023-03-14T14:29:44;15.40;51.40
78647;DHT22;67961;43.460;3.762;2023-03-14T14:32:21;15.30;51.80
78647;DHT22;67961;43.460;3.762;2023-03-14T14:34:57;15.20;51.50
78647;DHT22;67961;43.460;3.762;2023-03-14T14:39:54;15.40;51.30
78647;DHT22;67961;43.460;3.762;2023-03-14T14:42:23;15.50;51.80
78647;DHT22;67961;43.460;3.762;2023-03-14T14:44:51;15.50;52.10
78647;DHT22;67961;43.460;3.762;2023-03-14T14:47:22;15.60;52.90
78647;DHT22;67961;43.460;3.762;2023-03-14T14:49:48;15.80;52.90
78647;DHT22;67961;43.460;3.762;2023-03-14T14:52:30;15.90;53.00
78647;DHT22;67961;43.460;3.762;2023-03-14T14:55:00;16.00;53.10
78647;DHT22;67961;43.460;3.762;2023-03-14T14:57:37;16.00;52.40
78647;DHT22;67961;43.460;3.762;2023-03-14T15:00:17;16.00;53.70
78647;DHT22;67961;43.460;3.762;2023-03-14T15:02:48;16.00;53.00
78647;DHT22;67961;43.460;3.762;2023-03-14T15:05:14;16.10;52.70
78647;DHT22;67961;43.460;3.762;2023-03-14T15:07:40;16.20;53.60
78647;DHT22;67961;43.460;3.762;2023-03-14T15:10:11;16.40;53.30
78647;DHT22;67961;43.460;3.762;2023-03-14T15:12:36;16.40;53.30
78647;DHT22;67961;43.460;3.762;2023-03-14T15:15:02;16.40;52.70
78647;DHT22;67961;43.460;3.762;2023-03-14T15:17:28;16.40;51.80
78647;DHT22;67961;43.460;3.762;2023-03-14T15:19:54;16.30;51.50
78647;DHT22;67961;43.460;3.762;2023-03-14T15:22:21;16.00;52.60
78647;DHT22;67961;43.460;3.762;2023-03-14T15:24:46;15.80;53.20
78647;DHT22;67961;43.460;3.762;2023-03-14T15:27:13;15.80;53.10
78647;DHT22;67961;43.460;3.762;2023-03-14T15:29:40;15.50;53.50
78647;DHT22;67961;43.460;3.762;2023-03-14T15:32:13;15.20;54.10
78647;DHT22;67961;43.460;3.762;2023-03-14T15:34:39;15.00;54.70
78647;DHT22;67961;43.460;3.762;2023-03-14T15:37:05;14.90;55.50
78647;DHT22;67961;43.460;3.762;2023-03-14T15:39:35;14.80;55.50
78647;DHT22;67961;43.460;3.762;2023-03-14T15:42:01;14.80;55.30
78647;DHT22;67961;43.460;3.762;2023-03-14T15:44:27;14.80;55.20
78647;DHT22;67961;43.460;3.762;2023-03-14T15:46:52;14.80;55.70
78647;DHT22;67961;43.460;3.762;2023-03-14T15:49:18;14.90;54.80
78647;DHT22;67961;43.460;3.762;2023-03-14T15:51:44;14.80;55.00
78647;DHT22;67961;43.460;3.762;2023-03-14T15:54:09;14.80;55.30
78647;DHT22;67961;43.460;3.762;2023-03-14T15:56:35;14.90;54.40
78647;DHT22;67961;43.460;3.762;2023-03-14T15:59:01;14.90;54.40
78647;DHT22;67961;43.460;3.762;2023-03-14T16:01:27;14.90;55.00
78647;DHT22;67961;43.460;3.762;2023-03-14T16:03:52;15.00;54.10
78647;DHT22;67961;43.460;3.762;2023-03-14T16:06:18;15.00;53.70
78647;DHT22;67961;43.460;3.762;2023-03-14T16:08:45;14.90;53.80
78647;DHT22;67961;43.460;3.762;2023-03-14T16:11:12;14.90;54.60
78647;DHT22;67961;43.460;3.762;2023-03-14T16:13:39;14.90;54.70
78647;DHT22;67961;43.460;3.762;2023-03-14T16:16:06;14.80;55.00
78647;DHT22;67961;43.460;3.762;2023-03-14T16:18:34;14.70;54.70
78647;DHT22;67961;43.460;3.762;2023-03-14T16:21:05;14.60;54.80
78647;DHT22;67961;43.460;3.762;2023-03-14T16:23:31;14.50;54.50
78647;DHT22;67961;43.460;3.762;2023-03-14T16:25:58;14.50;54.90
78647;DHT22;67961;43.460;3.762;2023-03-14T16:28:24;14.40;54.20
78647;DHT22;67961;43.460;3.762;2023-03-14T16:30:51;14.40;54.20
78647;DHT22;67961;43.460;3.762;2023-03-14T16:33:16;14.30;54.40
78647;DHT22;67961;43.460;3.762;2023-03-14T16:35:53;14.30;54.90
78647;DHT22;67961;43.460;3.762;2023-03-14T16:38:19;14.30;55.10
78647;DHT22;67961;43.460;3.762;2023-03-14T16:40:55;14.30;55.10
78647;DHT22;67961;43.460;3.762;2023-03-14T16:43:21;14.30;55.00
78647;DHT22;67961;43.460;3.762;2023-03-14T16:45:49;14.20;54.70
78647;DHT22;67961;43.460;3.762;2023-03-14T16:48:15;14.20;54.80
78647;DHT22;67961;43.460;3.762;2023-03-14T16:50:41;14.20;55.10
78647;DHT22;67961;43.460;3.762;2023-03-14T16:53:07;14.10;55.50
78647;DHT22;67961;43.460;3.762;2023-03-14T16:55:32;14.20;56.60
78647;DHT22;67961;43.460;3.762;2023-03-14T16:57:58;14.00;56.50
78647;DHT22;67961;43.460;3.762;2023-03-14T17:00:24;14.00;55.80
78647;DHT22;67961;43.460;3.762;2023-03-14T17:02:50;13.90;56.20
78647;DHT22;67961;43.460;3.762;2023-03-14T17:05:15;13.80;56.50
78647;DHT22;67961;43.460;3.762;2023-03-14T17:07:41;13.60;56.70
78647;DHT22;67961;43.460;3.762;2023-03-14T17:10:07;13.50;57.70
78647;DHT22;67961;43.460;3.762;2023-03-14T17:12:33;13.30;57.70
78647;DHT22;67961;43.460;3.762;2023-03-14T17:14:59;13.20;57.80
78647;DHT22;67961;43.460;3.762;2023-03-14T17:17:25;13.10;58.70
78647;DHT22;67961;43.460;3.762;2023-03-14T17:19:50;13.00;58.80
78647;DHT22;67961;43.460;3.762;2023-03-14T17:22:16;12.90;58.80
78647;DHT22;67961;43.460;3.762;2023-03-14T17:24:42;12.90;58.80
78647;DHT22;67961;43.460;3.762;2023-03-14T17:27:07;12.90;59.50
78647;DHT22;67961;43.460;3.762;2023-03-14T17:29:33;12.80;59.30
78647;DHT22;67961;43.460;3.762;2023-03-14T17:31:59;12.80;60.30
78647;DHT22;67961;43.460;3.762;2023-03-14T17:34:27;12.80;60.00
78647;DHT22;67961;43.460;3.762;2023-03-14T17:36:53;12.70;60.00
78647;DHT22;67961;43.460;3.762;2023-03-14T17:39:18;12.70;60.50
78647;DHT22;67961;43.460;3.762;2023-03-14T17:41:46;12.70;60.60
78647;DHT22;67961;43.460;3.762;2023-03-14T17:44:13;12.70;60.50
78647;DHT22;67961;43.460;3.762;2023-03-14T17:46:38;12.60;60.50
78647;DHT22;67961;43.460;3.762;2023-03-14T17:49:04;12.50;60.20
78647;DHT22;67961;43.460;3.762;2023-03-14T17:51:30;12.50;60.60
78647;DHT22;67961;43.460;3.762;2023-03-14T17:53:55;12.50;60.80
78647;DHT22;67961;43.460;3.762;2023-03-14T17:56:22;12.50;60.90
78647;DHT22;67961;43.460;3.762;2023-03-14T17:58:48;12.50;61.00
78647;DHT22;67961;43.460;3.762;2023-03-14T18:01:18;12.50;60.20